Time;durP1;ratioP1;P1;durP2;ratioP2;P2;SDS_P1;SDS_P2;PMS_P1;PMS_P2;Temp;Humidity;BMP_temperature;BMP_pressure;BME280_temperature;BME280_humidity;BME280_pressure;Samples;Min_cycle;Max_cycle;Signal;HPM_P1;HPM_P2
2023/11/21 00:00:12;;;;;;;3.47;2.22;;;10.40;99.90;;;;;;5025984;28;20191;-84
2023/11/21 00:02:40;;;;;;;3.60;1.83;;;10.10;99.90;;;;;;5033292;28;20188;-84
2023/11/21 00:05:08;;;;;;;2.60;1.50;;;10.30;99.90;;;;;;5029747;28;20223;-84
2023/11/21 00:07:33;;;;;;;2.47;1.55;;;10.00;99.90;;;;;;5030054;28;20211;-84
2023/11/21 00:09:59;;;;;;;2.10;1.93;;;9.90;99.90;;;;;;5047847;28;20221;-84
2023/11/21 00:12:24;;;;;;;5.03;2.00;;;9.90;99.90;;;;;;5036247;28;20189;-85
2023/11/21 00:14:50;;;;;;;6.70;2.17;;;10.50;99.90;;;;;;5025823;28;20228;-84
2023/11/21 00:17:15;;;;;;;2.90;2.07;;;9.90;99.90;;;;;;5027329;28;20188;-85
2023/11/21 00:19:42;;;;;;;4.70;2.40;;;10.10;99.90;;;;;;5027514;28;20230;-84
2023/11/21 00:22:08;;;;;;;4.93;2.35;;;10.00;99.90;;;;;;5024380;28;20224;-84
2023/11/21 00:24:34;;;;;;;4.50;2.22;;;10.00;99.90;;;;;;5025728;28;20563;-85
2023/11/21 00:27:00;;;;;;;8.13;2.40;;;10.40;99.90;;;;;;5025963;28;20204;-85
2023/11/21 00:29:25;;;;;;;3.73;2.33;;;10.10;99.90;;;;;;5024031;28;20506;-84
2023/11/21 00:31:51;;;;;;;3.33;1.90;;;9.90;99.90;;;;;;5022285;28;20191;-85
2023/11/21 00:34:17;;;;;;;3.90;1.80;;;10.10;99.90;;;;;;5030447;28;20244;-85
2023/11/21 00:36:42;;;;;;;4.23;2.13;;;10.00;99.90;;;;;;5029731;28;20413;-85
2023/11/21 00:39:08;;;;;;;5.07;2.40;;;10.40;99.90;;;;;;5031026;28;20184;-85
2023/11/21 00:41:34;;;;;;;2.50;2.23;;;9.70;99.90;;;;;;5028500;28;20218;-84
2023/11/21 00:44:00;;;;;;;3.47;2.23;;;10.00;99.90;;;;;;5026767;28;20466;-85
2023/11/21 00:46:29;;;;;;;3.60;2.42;;;9.80;99.90;;;;;;5029920;28;20671;-85
2023/11/21 00:48:55;;;;;;;5.85;2.63;;;10.40;99.90;;;;;;5029796;28;20253;-85
2023/11/21 00:51:21;;;;;;;2.97;2.43;;;10.00;99.90;;;;;;5029851;28;20656;-85
2023/11/21 00:53:48;;;;;;;2.95;1.98;;;10.00;99.90;;;;;;5028835;28;20461;-85
2023/11/21 00:56:14;;;;;;;4.35;2.20;;;10.50;99.90;;;;;;5030213;28;20176;-85
2023/11/21 00:58:46;;;;;;;6.65;2.85;;;10.30;99.90;;;;;;5028900;28;20187;-85
2023/11/21 01:01:11;;;;;;;6.53;3.17;;;10.40;99.90;;;;;;5031232;28;20199;-85
2023/11/21 01:03:37;;;;;;;6.33;2.57;;;10.30;99.90;;;;;;5028941;28;20203;-86
2023/11/21 01:06:04;;;;;;;3.97;1.57;;;10.10;99.90;;;;;;5028159;28;20194;-85
2023/11/21 01:08:31;;;;;;;3.45;2.00;;;10.10;99.90;;;;;;5029892;28;20683;-85
2023/11/21 01:10:56;;;;;;;2.90;2.20;;;10.40;99.90;;;;;;5030310;28;20671;-84
2023/11/21 01:13:22;;;;;;;3.13;1.80;;;9.90;99.90;;;;;;5050453;28;20192;-84
2023/11/21 01:15:47;;;;;;;2.97;1.60;;;10.00;99.90;;;;;;5046306;28;20250;-84
2023/11/21 01:18:13;;;;;;;1.70;1.40;;;10.30;99.90;;;;;;5029724;28;20184;-85
2023/11/21 01:20:38;;;;;;;8.43;1.70;;;10.10;99.90;;;;;;5028207;28;20574;-84
2023/11/21 01:23:04;;;;;;;4.63;1.60;;;10.20;99.90;;;;;;5028063;28;20227;-84
2023/11/21 01:25:30;;;;;;;1.98;1.40;;;10.30;99.90;;;;;;5030298;28;20185;-84
2023/11/21 01:27:56;;;;;;;2.20;1.80;;;10.00;99.90;;;;;;5029299;28;20213;-84
2023/11/21 01:30:21;;;;;;;2.92;1.50;;;9.80;99.90;;;;;;5028177;28;20192;-84
2023/11/21 01:32:47;;;;;;;2.87;1.60;;;9.90;99.90;;;;;;5028011;28;20610;-85
2023/11/21 01:35:13;;;;;;;4.10;1.50;;;10.00;99.90;;;;;;5029580;28;20648;-85
2023/11/21 01:37:38;;;;;;;4.33;1.73;;;9.70;99.90;;;;;;5027810;28;20183;-83
2023/11/21 01:40:10;;;;;;;2.80;1.63;;;9.60;99.90;;;;;;5028316;28;20227;-85
2023/11/21 01:42:36;;;;;;;2.67;1.67;;;10.00;99.90;;;;;;5027783;28;20239;-84
2023/11/21 01:45:05;;;;;;;2.73;1.40;;;10.50;99.90;;;;;;5030319;28;20827;-85
2023/11/21 01:47:35;;;;;;;1.67;1.25;;;9.90;99.90;;;;;;5039134;28;20223;-85
2023/11/21 01:50:02;;;;;;;3.47;1.83;;;9.90;99.90;;;;;;5038910;28;20181;-85
2023/11/21 01:52:28;;;;;;;3.67;1.63;;;10.00;99.90;;;;;;5035398;28;20228;-85
2023/11/21 01:54:54;;;;;;;2.23;1.37;;;10.40;99.90;;;;;;5031972;28;20234;-85
2023/11/21 01:57:20;;;;;;;2.13;1.40;;;9.90;99.90;;;;;;5031328;28;20438;-85
2023/11/21 01:59:48;;;;;;;2.97;1.50;;;10.20;99.90;;;;;;5029762;28;20950;-85
2023/11/21 02:02:14;;;;;;;2.50;1.48;;;10.10;99.90;;;;;;5032636;28;20190;-85
2023/11/21 02:04:39;;;;;;;2.40;1.17;;;10.50;99.90;;;;;;5041983;28;20362;-86
2023/11/21 02:07:05;;;;;;;2.90;1.33;;;10.50;99.90;;;;;;5038644;28;20208;-85
2023/11/21 02:09:31;;;;;;;2.57;1.40;;;10.60;99.90;;;;;;5039450;28;20180;-84
2023/11/21 02:12:01;;;;;;;3.80;1.77;;;10.10;99.90;;;;;;5039859;28;20186;-84
2023/11/21 02:14:27;;;;;;;1.92;1.48;;;10.00;99.90;;;;;;5034646;28;20272;-84
2023/11/21 02:16:54;;;;;;;4.35;1.13;;;10.30;99.90;;;;;;5045064;28;20172;-84
2023/11/21 02:19:22;;;;;;;2.55;1.30;;;10.60;99.90;;;;;;5052906;28;20210;-83
2023/11/21 02:21:49;;;;;;;2.88;1.40;;;10.30;99.90;;;;;;5028474;28;20223;-85
2023/11/21 02:24:17;;;;;;;4.97;1.35;;;10.50;99.90;;;;;;5027973;28;20204;-84
2023/11/21 02:26:42;;;;;;;2.28;1.33;;;10.10;99.90;;;;;;5029008;28;20274;-84
2023/11/21 02:29:11;;;;;;;2.17;1.23;;;10.10;99.90;;;;;;5031026;28;20263;-84
2023/11/21 02:31:45;;;;;;;3.97;1.00;;;10.40;99.90;;;;;;5025345;28;20270;-85
2023/11/21 02:34:13;;;;;;;1.90;1.30;;;10.20;99.90;;;;;;5026690;28;20523;-84
2023/11/21 02:36:38;;;;;;;1.95;1.25;;;10.40;99.90;;;;;;5028946;28;20188;-84
2023/11/21 02:39:04;;;;;;;2.80;1.10;;;10.10;99.90;;;;;;5029930;28;20175;-84
2023/11/21 02:41:30;;;;;;;3.33;0.97;;;10.30;99.90;;;;;;5028194;28;20557;-84
2023/11/21 02:43:55;;;;;;;2.40;1.20;;;10.60;99.90;;;;;;5026618;28;20782;-84
2023/11/21 02:46:21;;;;;;;1.40;1.13;;;10.20;99.90;;;;;;5026754;28;20625;-84
2023/11/21 02:48:47;;;;;;;1.35;0.90;;;10.60;99.90;;;;;;5030368;28;20298;-84
2023/11/21 02:51:15;;;;;;;1.27;0.90;;;10.60;99.90;;;;;;5027560;28;20210;-84
2023/11/21 02:53:41;;;;;;;2.85;1.17;;;9.80;99.90;;;;;;5027202;28;20381;-83
2023/11/21 02:56:07;;;;;;;1.60;1.00;;;10.00;99.90;;;;;;5033352;28;20235;-84
2023/11/21 02:58:32;;;;;;;1.05;0.95;;;10.10;99.90;;;;;;5029582;28;20194;-85
2023/11/21 03:00:58;;;;;;;1.10;1.00;;;10.10;99.90;;;;;;5027920;28;20188;-85
2023/11/21 03:03:24;;;;;;;1.23;1.10;;;10.50;99.90;;;;;;5029667;28;20208;-86
2023/11/21 03:05:50;;;;;;;2.10;1.10;;;10.00;99.90;;;;;;5030992;28;20206;-87
2023/11/21 03:08:15;;;;;;;1.23;1.07;;;10.10;99.90;;;;;;5029101;28;20956;-87
2023/11/21 03:10:41;;;;;;;1.10;1.00;;;10.40;99.90;;;;;;5028342;28;20183;-86
2023/11/21 03:13:06;;;;;;;0.80;0.70;;;9.80;99.90;;;;;;5025322;28;20211;-86
2023/11/21 03:15:32;;;;;;;1.20;0.90;;;10.20;99.90;;;;;;5027250;28;20180;-87
2023/11/21 03:17:58;;;;;;;3.42;1.20;;;10.10;99.90;;;;;;5029247;28;20214;-87
2023/11/21 03:20:23;;;;;;;4.83;1.30;;;10.00;99.90;;;;;;5041697;28;20182;-87
2023/11/21 03:22:49;;;;;;;1.87;1.20;;;9.90;99.90;;;;;;5051779;28;20198;-87
2023/11/21 03:25:17;;;;;;;2.43;1.47;;;10.20;99.90;;;;;;5032353;28;20231;-87
2023/11/21 03:27:44;;;;;;;1.60;1.00;;;10.10;99.90;;;;;;5027472;28;20208;-86
2023/11/21 03:30:10;;;;;;;3.60;1.60;;;9.70;99.90;;;;;;5024242;28;20206;-86
2023/11/21 03:32:36;;;;;;;3.45;1.67;;;9.90;99.90;;;;;;5026343;28;20239;-86
2023/11/21 03:35:03;;;;;;;2.67;1.50;;;9.60;99.90;;;;;;5025946;28;20207;-86
2023/11/21 03:37:29;;;;;;;2.20;1.40;;;9.80;99.90;;;;;;5034159;28;20957;-84
2023/11/21 03:39:56;;;;;;;4.67;1.53;;;10.10;99.90;;;;;;5035440;28;20249;-84
2023/11/21 03:42:21;;;;;;;4.40;1.38;;;10.10;99.90;;;;;;5032680;28;20247;-84
2023/11/21 03:44:47;;;;;;;1.67;1.00;;;9.70;99.90;;;;;;5033768;28;20304;-84
2023/11/21 03:47:12;;;;;;;5.17;1.23;;;9.70;99.90;;;;;;5031048;28;20203;-84
2023/11/21 03:49:38;;;;;;;2.37;1.13;;;9.80;99.90;;;;;;5029516;28;20187;-84
2023/11/21 03:52:04;;;;;;;1.20;1.10;;;9.90;99.90;;;;;;5028768;28;20192;-85
2023/11/21 03:54:29;;;;;;;1.50;1.27;;;9.90;99.90;;;;;;5040614;28;20198;-87
2023/11/21 03:56:55;;;;;;;2.80;1.60;;;10.10;99.90;;;;;;5040082;28;20478;-87
2023/11/21 03:59:20;;;;;;;3.23;1.50;;;10.10;99.90;;;;;;5027084;28;20195;-87
2023/11/21 04:01:46;;;;;;;3.17;1.10;;;9.80;99.90;;;;;;5029879;28;20198;-87
2023/11/21 04:04:12;;;;;;;2.10;1.60;;;9.90;99.90;;;;;;5030735;28;20242;-87
2023/11/21 04:06:38;;;;;;;1.58;1.30;;;10.20;99.90;;;;;;5030072;28;20182;-86
2023/11/21 04:09:04;;;;;;;2.10;1.10;;;9.80;99.90;;;;;;5025795;28;20226;-86
2023/11/21 04:11:30;;;;;;;1.88;1.23;;;9.80;99.90;;;;;;5028331;28;20556;-86
2023/11/21 04:13:55;;;;;;;2.40;1.50;;;9.50;99.90;;;;;;5027590;28;20211;-91
2023/11/21 04:16:22;;;;;;;1.33;1.10;;;9.70;99.90;;;;;;5035067;28;20188;-87
2023/11/21 04:18:49;;;;;;;3.63;1.20;;;9.70;99.90;;;;;;5034223;28;20445;-85
2023/11/21 04:21:14;;;;;;;1.70;1.50;;;9.60;99.90;;;;;;5031664;28;20560;-86
2023/11/21 04:23:40;;;;;;;2.17;0.90;;;10.00;99.90;;;;;;5039255;28;20203;-86
2023/11/21 04:26:05;;;;;;;2.23;1.10;;;9.50;99.90;;;;;;5057159;28;20194;-86
2023/11/21 04:28:31;;;;;;;4.10;1.20;;;9.40;99.90;;;;;;5039726;28;20683;-86
2023/11/21 04:30:56;;;;;;;1.30;1.20;;;9.90;99.90;;;;;;5031709;28;20395;-86
2023/11/21 04:33:22;;;;;;;3.13;1.30;;;9.50;99.90;;;;;;5031445;28;20212;-86
2023/11/21 04:35:48;;;;;;;3.57;1.50;;;9.40;99.90;;;;;;5033296;28;20179;-86
2023/11/21 04:38:13;;;;;;;1.80;1.40;;;9.40;99.90;;;;;;5031460;28;20207;-86
2023/11/21 04:40:39;;;;;;;2.90;1.70;;;9.40;99.90;;;;;;5030731;28;20174;-86
2023/11/21 04:43:05;;;;;;;1.83;1.03;;;9.70;99.90;;;;;;5035699;28;20202;-86
2023/11/21 04:45:30;;;;;;;5.80;1.03;;;9.50;99.90;;;;;;5035668;28;20186;-86
2023/11/21 04:47:56;;;;;;;1.77;0.90;;;9.60;99.90;;;;;;5028243;28;20221;-86
2023/11/21 04:50:21;;;;;;;1.57;0.70;;;9.70;99.90;;;;;;5033052;28;20181;-86
2023/11/21 04:52:47;;;;;;;1.47;0.80;;;9.60;99.90;;;;;;5032180;28;20193;-86
2023/11/21 04:55:12;;;;;;;1.63;1.07;;;9.50;99.90;;;;;;5033914;28;20184;-87
2023/11/21 04:57:41;;;;;;;1.50;1.10;;;9.50;99.90;;;;;;5039667;28;20458;-85
2023/11/21 05:00:07;;;;;;;0.93;0.70;;;9.90;99.90;;;;;;5035839;28;20193;-86
2023/11/21 05:02:36;;;;;;;2.20;1.30;;;9.50;99.90;;;;;;5031931;28;20189;-85
2023/11/21 05:05:05;;;;;;;1.05;0.95;;;9.70;99.90;;;;;;5031546;28;20233;-86
2023/11/21 05:07:32;;;;;;;2.45;1.30;;;9.40;99.90;;;;;;5032413;28;20230;-87
2023/11/21 05:09:57;;;;;;;3.00;1.00;;;9.50;99.90;;;;;;5034317;28;20222;-87
2023/11/21 05:12:24;;;;;;;2.00;1.80;;;9.40;99.90;;;;;;5044975;28;20187;-85
2023/11/21 05:14:51;;;;;;;3.92;1.10;;;9.40;99.90;;;;;;5034980;28;20390;-85
2023/11/21 05:17:16;;;;;;;2.35;1.00;;;9.50;99.90;;;;;;5033102;28;20212;-85
2023/11/21 05:19:42;;;;;;;1.30;1.10;;;9.50;99.90;;;;;;5033219;28;21384;-85
2023/11/21 05:22:08;;;;;;;3.20;1.30;;;9.60;99.90;;;;;;5035984;28;20943;-85
2023/11/21 05:24:34;;;;;;;1.47;0.93;;;9.70;99.90;;;;;;5038182;28;20217;-85
2023/11/21 05:27:00;;;;;;;1.85;1.67;;;9.60;99.90;;;;;;5047722;28;20211;-85
2023/11/21 05:29:26;;;;;;;1.70;1.40;;;9.50;99.90;;;;;;5048848;28;20258;-84
2023/11/21 05:31:52;;;;;;;1.30;1.10;;;9.80;99.90;;;;;;5036944;28;20240;-85
2023/11/21 05:34:18;;;;;;;1.70;0.90;;;9.70;99.90;;;;;;5034510;28;20728;-85
2023/11/21 05:36:46;;;;;;;1.20;1.10;;;10.10;99.90;;;;;;5030461;28;20186;-85
2023/11/21 05:39:13;;;;;;;1.35;1.25;;;10.30;99.90;;;;;;5031471;28;20202;-84
2023/11/21 05:41:39;;;;;;;1.10;1.00;;;9.80;99.90;;;;;;5032119;28;20182;-86
2023/11/21 05:44:05;;;;;;;1.70;1.13;;;9.90;99.90;;;;;;5029981;28;20200;-88
2023/11/21 05:46:30;;;;;;;2.60;1.20;;;9.70;99.90;;;;;;5032234;28;20247;-88
2023/11/21 05:48:56;;;;;;;4.60;2.60;;;10.10;99.90;;;;;;5030889;28;20480;-86
2023/11/21 05:51:22;;;;;;;2.90;1.30;;;10.20;99.90;;;;;;5030559;28;20183;-85
2023/11/21 05:53:47;;;;;;;2.17;1.17;;;9.90;99.90;;;;;;5029855;28;20545;-85
2023/11/21 05:56:13;;;;;;;1.73;1.30;;;10.10;99.90;;;;;;5032096;28;20187;-86
2023/11/21 05:58:39;;;;;;;3.90;1.60;;;9.60;99.90;;;;;;5027686;28;20183;-88
2023/11/21 06:01:09;;;;;;;1.33;1.23;;;10.10;99.90;;;;;;5035721;28;20485;-87
2023/11/21 06:03:35;;;;;;;2.47;1.90;;;9.60;99.90;;;;;;5035031;28;20264;-87
2023/11/21 06:06:00;;;;;;;1.33;0.97;;;9.50;99.90;;;;;;5041003;28;20191;-88
2023/11/21 06:08:26;;;;;;;4.43;1.70;;;9.50;99.90;;;;;;5039667;28;20468;-88
2023/11/21 06:10:52;;;;;;;1.40;1.30;;;10.00;99.90;;;;;;5036585;28;20175;-88
2023/11/21 06:13:20;;;;;;;1.87;1.40;;;9.60;99.90;;;;;;5032595;28;20202;-88
2023/11/21 06:15:46;;;;;;;2.05;1.00;;;9.70;99.90;;;;;;5034867;28;20659;-88
2023/11/21 06:18:11;;;;;;;1.53;1.20;;;9.00;99.90;;;;;;5035555;28;20191;-85
2023/11/21 06:20:37;;;;;;;1.57;1.00;;;9.80;99.90;;;;;;5031927;28;20199;-85
2023/11/21 06:23:03;;;;;;;1.70;1.60;;;9.20;99.90;;;;;;5035734;28;20211;-86
2023/11/21 06:25:32;;;;;;;1.60;1.50;;;9.50;99.90;;;;;;5044936;28;20198;-84
2023/11/21 06:27:58;;;;;;;3.42;1.45;;;9.60;99.90;;;;;;5043103;28;20219;-84
2023/11/21 06:30:25;;;;;;;1.60;1.30;;;9.80;99.90;;;;;;5046453;28;20238;-84
2023/11/21 06:32:52;;;;;;;3.95;2.30;;;9.50;99.90;;;;;;5035513;28;20204;-84
2023/11/21 06:35:18;;;;;;;1.98;1.30;;;9.50;99.90;;;;;;5040754;28;20241;-84
2023/11/21 06:37:49;;;;;;;2.20;1.33;;;9.40;99.90;;;;;;5037161;28;20359;-84
2023/11/21 06:40:15;;;;;;;1.60;1.20;;;9.40;99.90;;;;;;5038648;28;20191;-84
2023/11/21 06:42:41;;;;;;;1.97;1.13;;;9.30;99.90;;;;;;5045691;28;20176;-84
2023/11/21 06:45:07;;;;;;;2.07;1.43;;;9.60;99.90;;;;;;5038467;28;20434;-84
2023/11/21 06:47:33;;;;;;;1.48;1.38;;;9.60;99.90;;;;;;5036982;28;20471;-84
2023/11/21 06:50:00;;;;;;;4.23;3.10;;;9.80;99.90;;;;;;5039060;28;20695;-85
2023/11/21 06:52:26;;;;;;;1.55;1.45;;;9.60;99.90;;;;;;5035968;28;20449;-84
2023/11/21 06:54:51;;;;;;;2.87;1.60;;;9.60;99.90;;;;;;5038134;28;20286;-84
2023/11/21 06:57:17;;;;;;;2.10;1.87;;;9.70;99.90;;;;;;5038427;28;20443;-84
2023/11/21 06:59:44;;;;;;;2.00;1.80;;;9.60;99.90;;;;;;5022771;28;20378;-85
2023/11/21 07:02:09;;;;;;;1.50;1.40;;;9.80;99.90;;;;;;5046497;28;20423;-84
2023/11/21 07:04:36;;;;;;;6.70;6.10;;;10.60;99.90;;;;;;5040427;28;20630;-84
2023/11/21 07:07:03;;;;;;;3.40;1.65;;;9.70;99.90;;;;;;5037299;28;20274;-84
2023/11/21 07:09:29;;;;;;;2.78;2.28;;;9.80;99.90;;;;;;5037089;28;20184;-84
2023/11/21 07:11:55;;;;;;;2.23;1.70;;;9.80;99.90;;;;;;5034514;28;20179;-85
2023/11/21 07:14:21;;;;;;;1.63;1.53;;;9.80;99.90;;;;;;5037150;28;20469;-85
2023/11/21 07:16:47;;;;;;;2.75;2.30;;;10.00;99.90;;;;;;5036110;28;20498;-85
2023/11/21 07:19:13;;;;;;;2.00;1.73;;;10.20;99.90;;;;;;5037061;28;20230;-85
2023/11/21 07:21:39;;;;;;;5.68;3.38;;;9.50;99.90;;;;;;5036403;28;20238;-86
2023/11/21 07:24:07;;;;;;;5.13;3.65;;;10.10;99.90;;;;;;5042366;28;20226;-85
2023/11/21 07:26:33;;;;;;;4.25;2.70;;;10.00;99.90;;;;;;5034462;28;20190;-86
2023/11/21 07:29:00;;;;;;;3.28;2.15;;;9.70;99.90;;;;;;5037180;28;20206;-86
2023/11/21 07:31:26;;;;;;;2.50;2.30;;;10.40;99.90;;;;;;5037721;28;20227;-85
2023/11/21 07:33:52;;;;;;;2.23;1.30;;;9.70;99.90;;;;;;5046833;28;20188;-85
2023/11/21 07:36:21;;;;;;;2.35;2.03;;;10.20;99.90;;;;;;5051468;28;20473;-85
2023/11/21 07:38:47;;;;;;;2.10;1.88;;;9.90;99.90;;;;;;5039007;28;20638;-85
2023/11/21 07:41:15;;;;;;;3.55;3.22;;;9.70;99.90;;;;;;5041694;28;20190;-85
2023/11/21 07:43:42;;;;;;;2.70;2.50;;;9.70;99.90;;;;;;5038108;28;20219;-86
2023/11/21 07:46:07;;;;;;;3.92;2.35;;;9.60;99.90;;;;;;5039153;28;20180;-86
2023/11/21 07:48:34;;;;;;;2.83;2.50;;;9.80;99.90;;;;;;5035869;28;20214;-86
2023/11/21 07:51:06;;;;;;;1.98;1.88;;;9.60;99.90;;;;;;5036660;28;20180;-85
2023/11/21 07:53:32;;;;;;;3.72;2.30;;;10.20;99.90;;;;;;5052418;28;20226;-85
2023/11/21 07:56:02;;;;;;;4.35;2.85;;;9.90;99.90;;;;;;5036549;28;20203;-85
2023/11/21 07:58:28;;;;;;;2.17;1.98;;;10.10;99.90;;;;;;5035497;28;20194;-86
2023/11/21 08:00:54;;;;;;;1.40;1.23;;;10.40;99.90;;;;;;5036479;28;20191;-85
2023/11/21 08:03:19;;;;;;;1.60;1.50;;;10.40;99.90;;;;;;5046238;28;20205;-83
2023/11/21 08:05:45;;;;;;;3.33;1.50;;;10.50;99.90;;;;;;5039606;28;20390;-85
2023/11/21 08:08:11;;;;;;;1.83;1.60;;;10.50;99.90;;;;;;5043765;28;20223;-85
2023/11/21 08:10:42;;;;;;;3.38;2.50;;;10.20;99.90;;;;;;5051380;28;20277;-85
2023/11/21 08:13:09;;;;;;;4.97;2.95;;;;;;;;;;5024676;28;20611;-85
2023/11/21 08:15:36;;;;;;;2.67;1.52;;;10.30;99.90;;;;;;5039926;28;20202;-85
2023/11/21 08:18:02;;;;;;;1.88;1.58;;;10.40;99.90;;;;;;5038531;28;20185;-85
2023/11/21 08:20:28;;;;;;;2.07;1.67;;;10.40;99.90;;;;;;5038774;28;20201;-85
2023/11/21 08:22:55;;;;;;;1.80;1.70;;;10.40;99.90;;;;;;5028726;28;20216;-86
2023/11/21 08:25:20;;;;;;;4.22;3.08;;;10.40;99.90;;;;;;5036904;28;20868;-85
2023/11/21 08:27:47;;;;;;;2.73;2.00;;;10.70;99.90;;;;;;5034622;28;20215;-85
2023/11/21 08:30:14;;;;;;;2.20;2.00;;;11.70;99.90;;;;;;5036786;28;20186;-85
2023/11/21 08:32:40;;;;;;;2.42;1.73;;;10.60;99.90;;;;;;5036444;28;20559;-85
2023/11/21 08:35:07;;;;;;;2.50;2.30;;;10.70;99.90;;;;;;5030646;28;20270;-85
2023/11/21 08:37:37;;;;;;;2.17;1.98;;;10.20;99.90;;;;;;5048552;28;20188;-85
2023/11/21 08:40:03;;;;;;;2.20;1.85;;;10.40;99.90;;;;;;5047595;28;20202;-86
2023/11/21 08:42:29;;;;;;;2.45;1.70;;;10.50;99.90;;;;;;5034561;28;20279;-85
2023/11/21 08:44:57;;;;;;;4.57;2.00;;;10.60;99.90;;;;;;5037645;28;20201;-85
2023/11/21 08:47:24;;;;;;;2.35;2.15;;;10.10;99.90;;;;;;5034266;28;20212;-85
2023/11/21 08:49:52;;;;;;;2.30;1.92;;;10.70;99.90;;;;;;5033456;28;20213;-86
2023/11/21 08:52:18;;;;;;;2.00;1.77;;;11.40;99.90;;;;;;5029702;28;20186;-86
2023/11/21 08:54:45;;;;;;;1.98;1.77;;;11.70;99.90;;;;;;5038685;28;20236;-85
2023/11/21 08:57:11;;;;;;;2.78;1.67;;;10.90;99.90;;;;;;5040219;28;20202;-84
2023/11/21 08:59:36;;;;;;;1.77;1.67;;;10.80;99.90;;;;;;5038320;28;20178;-85
2023/11/21 09:02:02;;;;;;;1.50;1.30;;;10.90;99.90;;;;;;5036608;28;20181;-85
2023/11/21 09:04:28;;;;;;;1.60;1.50;;;11.20;99.90;;;;;;5038082;28;20264;-85
2023/11/21 09:06:53;;;;;;;1.80;1.60;;;11.30;99.90;;;;;;5034510;28;20470;-85
2023/11/21 09:09:19;;;;;;;2.40;1.43;;;11.30;99.90;;;;;;5034734;28;20307;-85
2023/11/21 09:11:49;;;;;;;1.60;1.50;;;12.00;99.90;;;;;;5039030;28;20288;-85
2023/11/21 09:14:15;;;;;;;1.55;1.23;;;12.30;99.90;;;;;;5038111;28;20555;-85
2023/11/21 09:16:41;;;;;;;1.23;1.13;;;12.30;99.90;;;;;;5035515;28;20195;-85
2023/11/21 09:19:07;;;;;;;1.10;1.00;;;12.20;99.90;;;;;;5039128;28;20216;-84
2023/11/21 09:21:34;;;;;;;2.70;1.50;;;12.40;99.90;;;;;;5034122;28;20609;-85
2023/11/21 09:23:59;;;;;;;1.80;1.63;;;12.90;99.90;;;;;;5034833;28;20209;-86
2023/11/21 09:26:25;;;;;;;1.77;1.50;;;12.70;99.90;;;;;;5038650;28;20349;-84
2023/11/21 09:28:51;;;;;;;3.10;1.30;;;12.60;99.90;;;;;;5036456;28;20222;-85
2023/11/21 09:31:16;;;;;;;2.80;2.40;;;13.10;99.90;;;;;;5038918;28;20201;-86
2023/11/21 09:33:43;;;;;;;1.90;1.50;;;13.00;99.90;;;;;;5035771;28;20217;-85
2023/11/21 09:36:15;;;;;;;1.88;1.40;;;13.40;99.90;;;;;;5055971;22;20250;-90
2023/11/21 09:38:44;;;;;;;2.58;1.30;;;14.10;99.90;;;;;;5058487;28;20243;-90
2023/11/21 09:41:19;;;;;;;1.40;1.08;;;13.50;99.90;;;;;;5055990;28;20212;-90
2023/11/21 09:43:47;;;;;;;3.08;1.90;;;14.40;99.90;;;;;;5047153;28;20243;-90
2023/11/21 09:46:19;;;;;;;1.85;1.30;;;14.00;99.90;;;;;;5055436;28;20185;-90
2023/11/21 09:48:48;;;;;;;2.40;1.55;;;13.30;99.90;;;;;;5042152;28;20557;-90
2023/11/21 09:51:14;;;;;;;2.70;2.50;;;12.50;99.90;;;;;;5043114;28;20227;-90
2023/11/21 09:53:44;;;;;;;1.58;1.20;;;12.70;99.90;;;;;;5035030;28;20264;-90
2023/11/21 09:56:10;;;;;;;1.30;1.20;;;12.20;99.90;;;;;;5033805;28;20808;-90
2023/11/21 09:58:35;;;;;;;1.10;1.00;;;11.90;99.90;;;;;;5037484;28;20191;-90
2023/11/21 10:01:03;;;;;;;2.10;1.60;;;12.10;99.90;;;;;;5040317;28;20532;-90
2023/11/21 10:03:29;;;;;;;1.85;1.60;;;12.10;99.90;;;;;;5040087;28;20599;-90
2023/11/21 10:06:00;;;;;;;2.00;1.80;;;11.60;99.90;;;;;;5042869;28;20220;-90
2023/11/21 10:08:28;;;;;;;1.85;1.20;;;12.10;99.90;;;;;;5040798;28;20196;-90
2023/11/21 10:10:54;;;;;;;4.05;1.50;;;12.10;99.90;;;;;;5020306;28;20195;-90
2023/11/21 10:13:20;;;;;;;1.45;1.33;;;12.30;99.90;;;;;;5040309;28;20729;-90
2023/11/21 10:15:51;;;;;;;5.07;1.23;;;12.60;99.90;;;;;;5045400;28;20693;-90
2023/11/21 10:18:17;;;;;;;2.42;1.17;;;12.40;99.90;;;;;;5036617;28;20444;-90
2023/11/21 10:20:46;;;;;;;1.40;1.10;;;12.50;99.90;;;;;;5038889;28;20198;-89
2023/11/21 10:23:12;;;;;;;2.65;1.85;;;12.30;99.90;;;;;;5045551;28;20467;-90
2023/11/21 10:25:38;;;;;;;1.52;1.20;;;11.70;99.90;;;;;;5040455;28;20181;-90
2023/11/21 10:28:07;;;;;;;0.97;0.90;;;12.00;99.90;;;;;;5034308;28;20214;-90
2023/11/21 10:30:37;;;;;;;1.45;1.35;;;12.30;99.90;;;;;;5042568;28;20182;-90
2023/11/21 10:33:07;;;;;;;1.20;1.10;;;11.80;99.90;;;;;;5057886;28;20216;-91
2023/11/21 10:35:50;;;;;;;1.02;0.80;;;12.10;99.90;;;;;;5026704;28;20184;-90
2023/11/21 10:38:21;;;;;;;1.02;0.80;;;11.60;99.90;;;;;;5042352;28;20275;-90
2023/11/21 10:40:47;;;;;;;1.27;0.98;;;11.50;99.90;;;;;;5030761;28;20220;-90
2023/11/21 10:43:15;;;;;;;2.50;1.10;;;11.90;99.90;;;;;;5041610;28;20205;-90
2023/11/21 10:45:42;;;;;;;1.00;0.90;;;11.50;99.90;;;;;;5035307;28;20919;-90
2023/11/21 10:48:10;;;;;;;1.15;0.82;;;11.40;99.90;;;;;;5036538;28;20205;-90
2023/11/21 10:50:37;;;;;;;0.90;0.80;;;11.70;99.90;;;;;;5038272;28;20598;-90
2023/11/21 10:53:06;;;;;;;1.17;0.90;;;11.80;99.90;;;;;;5036556;28;20549;-90
2023/11/21 10:55:32;;;;;;;1.88;1.10;;;12.10;99.90;;;;;;5028950;28;20197;-90
2023/11/21 10:58:02;;;;;;;1.15;1.05;;;11.70;99.90;;;;;;5040677;28;20817;-90
2023/11/21 11:00:28;;;;;;;1.05;0.80;;;11.60;99.90;;;;;;5050968;28;20189;-90
2023/11/21 11:02:58;;;;;;;1.30;1.00;;;12.30;99.90;;;;;;5042506;28;20186;-91
2023/11/21 11:05:32;;;;;;;1.90;0.80;;;11.60;99.90;;;;;;5036191;28;20204;-90
2023/11/21 11:08:18;;;;;;;1.10;1.02;;;11.70;99.90;;;;;;5044203;28;20212;-90
2023/11/21 11:10:50;;;;;;;2.53;1.20;;;11.90;99.90;;;;;;5040084;28;20274;-90
2023/11/21 11:13:16;;;;;;;1.58;1.42;;;11.70;99.90;;;;;;5040616;28;20201;-90
2023/11/21 11:15:44;;;;;;;1.65;1.30;;;11.80;99.90;;;;;;5039401;28;20292;-90
2023/11/21 11:18:10;;;;;;;1.83;1.20;;;11.80;99.90;;;;;;5058810;28;20202;-90
2023/11/21 11:20:39;;;;;;;2.70;1.60;;;12.40;99.90;;;;;;5061355;28;20173;-90
2023/11/21 11:23:33;;;;;;;1.25;1.15;;;12.00;99.90;;;;;;5035898;28;20709;-91
2023/11/21 11:26:09;;;;;;;2.25;1.50;;;12.40;99.90;;;;;;5036822;28;20189;-91
2023/11/21 11:29:07;;;;;;;1.15;1.05;;;12.90;99.90;;;;;;5054910;28;20217;-90
2023/11/21 11:32:09;;;;;;;1.40;1.30;;;12.10;99.90;;;;;;5043717;28;20681;-90
2023/11/21 11:34:41;;;;;;;1.27;1.17;;;12.00;99.90;;;;;;5054167;28;20201;-90
2023/11/21 11:37:10;;;;;;;1.63;1.52;;;12.20;99.90;;;;;;5035301;28;20194;-90
2023/11/21 11:39:37;;;;;;;1.50;0.98;;;12.40;99.90;;;;;;5035991;28;20253;-90
2023/11/21 11:42:06;;;;;;;1.80;1.05;;;12.40;99.90;;;;;;5047366;28;20176;-90
2023/11/21 11:44:51;;;;;;;1.52;1.42;;;11.90;99.90;;;;;;5042693;28;20304;-90
2023/11/21 11:47:16;;;;;;;1.92;1.20;;;12.20;99.90;;;;;;5026208;28;20558;-90
2023/11/21 11:50:21;;;;;;;1.70;1.30;;;11.80;99.90;;;;;;5036864;28;20659;-90
2023/11/21 11:52:48;;;;;;;1.60;1.50;;;11.70;99.90;;;;;;5038049;28;20206;-90
2023/11/21 11:55:18;;;;;;;4.05;3.10;;;12.40;99.90;;;;;;5041050;28;20177;-90
2023/11/21 11:57:46;;;;;;;2.30;2.10;;;12.60;99.90;;;;;;5037334;28;20185;-90
2023/11/21 12:00:20;;;;;;;2.40;2.20;;;12.30;99.90;;;;;;5041277;28;20188;-90
2023/11/21 12:03:01;;;;;;;2.78;1.58;;;12.50;99.90;;;;;;5043352;28;20190;-90
2023/11/21 12:05:28;;;;;;;4.90;4.40;;;12.40;99.90;;;;;;5041965;28;20185;-89
2023/11/21 12:07:56;;;;;;;2.40;2.20;;;14.10;99.90;;;;;;5041702;28;20209;-91
2023/11/21 12:10:28;;;;;;;2.97;2.60;;;14.10;99.90;;;;;;5045597;28;20184;-89
2023/11/21 12:13:07;;;;;;;1.40;1.30;;;13.40;99.90;;;;;;5039816;28;20301;-89
2023/11/21 12:15:33;;;;;;;2.67;2.47;;;12.80;99.90;;;;;;5066235;28;20196;-89
2023/11/21 12:17:59;;;;;;;1.83;1.73;;;14.40;99.90;;;;;;5049228;28;20195;-89
2023/11/21 12:20:26;;;;;;;1.83;1.70;;;13.20;99.90;;;;;;5045071;28;20253;-89
2023/11/21 12:22:59;;;;;;;6.15;4.40;;;13.90;99.90;;;;;;5055103;28;20444;-90
2023/11/21 12:25:31;;;;;;;2.28;2.10;;;12.70;99.90;;;;;;5062108;28;20201;-89
2023/11/21 12:27:58;;;;;;;1.80;1.70;;;13.10;99.90;;;;;;5047620;28;20221;-89
2023/11/21 12:30:31;;;;;;;1.70;1.60;;;13.00;99.90;;;;;;5064891;28;20263;-89
2023/11/21 12:32:59;;;;;;;2.28;2.08;;;12.70;99.90;;;;;;5077631;28;20189;-89
2023/11/21 12:35:30;;;;;;;22.48;6.07;;;12.60;99.90;;;;;;5051561;28;20192;-88
2023/11/21 12:37:59;;;;;;;2.33;2.10;;;12.30;99.90;;;;;;5044447;28;20205;-89
2023/11/21 12:40:25;;;;;;;28.70;6.32;;;12.70;99.90;;;;;;5044101;28;20177;-88
2023/11/21 12:42:58;;;;;;;17.38;4.57;;;12.50;99.90;;;;;;5043236;28;20262;-89
2023/11/21 12:45:26;;;;;;;2.80;2.25;;;12.80;99.90;;;;;;5043621;28;20205;-89
2023/11/21 12:48:08;;;;;;;3.13;2.10;;;12.50;99.90;;;;;;5041470;28;20215;-89
2023/11/21 12:50:36;;;;;;;2.63;2.42;;;12.60;99.90;;;;;;5053944;28;20181;-89